Nantucket Memorial Airport
KACK : now visible

Airfield :











YOU CAN JOIN US ON...

 
LOGIN :

Register | Disclaimer

   EN    FR    IT 

 









Legend :    VFR   Marginal VFR   IFR   Intensive IFR   Very Intensive IFR
Visi :
Ceiling :
>= 8 km
>= 3000ft
5 to 8 km
1000 to 3000 ft
1500m to 5 km
500 to 1000 ft
800 to 1500m
200 to 500 ft
< 800m
< 200 ft
Symbols :   Thunderstorms  Fog  Heavy snow  Heavy precipitations  Wind > 20 kt






- Airport Elevation : 47 ft
- IATA code : ACK


KACK - Nantucket Memorial

CURRENT METAR :
  • 120553Z AUTO 31018G24KT CLR 01/M06 A3039 RMK AO2 SLP292 T00111061 10017 21006 53024

EXPIRED METARs :
  • 120453Z AUTO 30009KT CLR 01/M04 A3035 RMK AO2 SLP278 T00061044 400721011
  • 120353Z AUTO 30009KT CLR 01/M03 A3034 RMK AO2 SLP274 T00111033

TAF KACK
Valid from the 12 at 06:00 until the 13 at 06:00 UTC


120535Z 1206/1306 30014G26KT P6SM SKC
FM121200 33015G24KT P6SM SKC
FM121500 34014KT P6SM SKC
FM122200 01006KT P6SM SKC
FM130000 07003KT P6SM SKC
FM130100 10003KT P6SM SKC



MET'MAP, your aeronautical weather chart ! - Copyright ORBIFLY December 2007 - Disclaimer

ORBIFLY MET'MAP TEAM :

Programming & Development : Alexandra Zaïnal
Concept & original design : Baudouin d'Aumeries
Assistance for programming : Marc-Olivier Méhu
Technical & hardware support : Manuel Goepfert

Contact : metmap@orbifly.com




SOURCES & CREDITS :

   NOAA       Earth
Advisory